Historyczne dane pomiarowe

Dodano dane terminowe – wersja testowa.

Dane z okresu 1951-2019

Wersja bazy: 1.34 [2019-03-16, lista zmian], aktualizacja planowana na 2019-04-15

Dane meteo z obszaru Polski uzyskane na podstawie danych udostępnionych przez Instytut Meteorologii i Gospodarki Wodnej – Państwowy Instytut Badawczy.

 

Wybierz Datę:    

       

TemperaturaWilgotnośćWiatrCiśnienieOpadyŚniegCzas trwania zjawisk
 Stacja t tx tn tng RH VA  wxwx mslp ppp RRR   cm mm wxwxwxwxwxwxwx
1994-08-14 15.8 20.2 13.0- 70.0- 5.0 2.3---- 0.0------------
1994-08-13 17.1 23.1 15.0- 89.3- 7.3 2.7---- 3.7------------
1994-08-12 17.5 20.2 15.4- 89.3- 6.7 1.7---- 3.3------------
1994-08-11 18.3 23.4 15.4- 98.5- 7.0 2.0---- 16.8------------
1994-08-10 21.4 28.4 14.4- 77.5- 3.0 1.3---- 14.8------------
1994-08-09 19.3 24.1 17.0- 97.3- 7.7 1.3---- 2.6------------
1994-08-08 23.5 30.3 19.1- 78.8- 5.3 1.3---- 2.1------------
1994-08-07 24.7 32.7 21.1- 74.3- 5.3 1.0---- 7.8------------
1994-08-06 24.4 33.7 13.9- 68.3- 3.0 1.0---- 0.0------------
1994-08-05 24.1 32.2 16.0- 73.8- 2.3 1.3---- 0.0------------
1994-08-04 22.9 30.3 17.9- 82.5- 4.7 1.3---- 0.8------------
1994-08-03 24.3 32.1 20.1- 83.0- 5.0 2.3---- 1.3------------
1994-08-02 25.3 32.6 17.4- 71.8- 5.3 1.0---- 0.0------------
1994-08-01 26.6 36.3 17.4- 67.3- 2.7 1.7---- 0.0------------
1994-07-31 27.1 36.1 15.7- 61.3- 0.0 1.0---- 0.0------------
1994-07-30 25.6 35.8 14.4- 66.0- 1.3 1.3---- 0.0------------
1994-07-29 25.4 34.7 14.4- 67.0- 0.3 0.7---- 0.0------------
1994-07-28 25.4 34.3 14.9- 68.0- 2.7 1.0---- 0.0------------
1994-07-27 24.7 33.8 14.9- 68.3- 4.3 0.7---- 0.0------------
1994-07-26 24.9 33.4 15.3- 67.8- 2.3 1.0---- 0.0------------
1994-07-25 24.0 32.8 13.4- 66.8- 2.3 1.0---- 0.0------------
1994-07-24 22.6 31.6 12.3- 67.0- 1.0 1.0---- 0.0------------
1994-07-23 21.8 29.7 11.0- 70.3- 3.0 1.3---- 0.0------------
1994-07-22 21.5 29.6 10.9- 67.8- 2.3 1.3---- 0.0------------
1994-07-21 19.9 27.6 9.8- 71.3- 1.0 1.3---- 0.0------------
1994-07-20 19.0 25.4 11.4- 71.3- 3.3 2.0---- 0.0------------
1994-07-19 20.4 26.6 14.4- 83.8- 5.7 1.7---- 0.0------------
1994-07-18 21.2 26.8 17.4- 87.8- 6.0 1.3---- 0.8------------
1994-07-17 23.2 29.8 18.4- 77.3- 6.3 1.7---- 2.1------------
1994-07-16 23.3 31.3 15.4- 70.8- 4.0 2.0---- 0.0------------
1994-07-15 22.4 28.6 13.0- 81.0- 4.3 1.3---- 0.0------------
1994-07-14 22.4 30.1 14.1- 77.8- 5.7 1.7---- 0.0------------
1994-07-13 21.4 28.4 14.0- 76.0- 4.3 1.7---- 0.0------------
1994-07-12 20.9 27.1 15.9- 82.8- 5.0 1.3---- 0.0------------
1994-07-11 18.9 25.6 13.4- 84.0- 5.3 1.0---- 0.1------------
1994-07-10 16.6 22.2 12.5- 86.3- 6.3 1.7---- 2.1------------
1994-07-09 15.6 19.2 13.3- 85.3- 7.3 2.3---- 15.3------------
1994-07-08 17.6 22.0 14.9- 76.3- 5.3 2.3---- 0.3------------
1994-07-07 19.5 27.2 11.9- 75.5- 6.3 1.0---- 6.7------------
1994-07-06 20.8 26.2 13.4- 68.5- 3.7 1.3---- 0.0------------
1994-07-05 21.4 26.9 13.1- 72.0- 5.3 1.7---- 2.4------------
1994-07-04 22.1 29.8 10.2- 68.0- 2.3 1.0---- 0.0------------
1994-07-03 20.6 27.7 5.3- 70.0- 1.7 1.7---- 0.0------------
1994-07-02 20.1 25.8 10.2- 69.8- 2.0 1.3---- 0.0------------
1994-07-01 20.8 25.1 16.3- 70.3- 4.0 2.0---- 0.0------------
1994-06-30 23.4 28.1 20.1- 85.5- 5.3 2.7---- 0.2------------
1994-06-29 25.3 31.8 16.9- 80.5- 2.0 1.0---- 0.0------------
1994-06-28 26.0 31.2 18.4- 79.8- 3.0 1.0---- 0.0------------
1994-06-27 26.0 33.1 17.7- 71.5- 3.3 1.0---- 0.0------------
1994-06-26 21.2 30.6 8.1- 74.0- 0.7 1.0---- 0.0------------
1994-06-25 16.8 24.6 7.4- 68.5- 0.7 1.3---- 0.0------------
1994-06-24 15.8 21.2 9.4- 70.8- 2.0 2.0---- 0.0------------
1994-06-23 18.7 23.7 16.4- 67.5- 4.0 2.7---- 0.0------------
1994-06-22 19.4 27.0 10.3- 75.0- 5.0 2.0---- 0.0------------
1994-06-21 16.9 22.7 8.0- 73.3- 3.3 1.3---- 0.0------------
1994-06-20 19.2 25.0 12.4- 75.5- 4.7 2.3---- 0.0------------
1994-06-19 19.1 26.0 11.8- 77.0- 5.0 1.7---- 0.0------------
1994-06-18 14.8 20.6 7.0- 73.3- 5.3 2.0---- 10.8------------
1994-06-17 13.0 15.2 9.3- 79.8- 6.3 2.7---- 0.8------------
1994-06-16 13.6 17.2 9.0- 76.5- 6.3 2.3---- 2.2------------
275.9 ms

 

Źródłem pochodzenia danych jest Instytut Meteorologii i Gospodarki Wodnej – Państwowy Instytut Badawczy. Dane Instytutu Meteorologii i Gospodarki Wodnej – Państwowego Instytutu Badawczego zostały przetworzone.

Dane źródłowe można odnaleźć na stronie https://dane.imgw.pl